createdAt,value
2017-12-23T00:00:19.763Z,1034.29
2017-12-23T00:01:19.514Z,1034.28
2017-12-23T00:02:20.056Z,1034.28
2017-12-23T00:03:20.534Z,1034.26
2017-12-23T00:04:20.068Z,1034.16
2017-12-23T00:05:20.608Z,1034.21
2017-12-23T00:06:19.890Z,1034.19
2017-12-23T00:07:19.740Z,1034.25
2017-12-23T00:08:20.813Z,1034.29
2017-12-23T00:09:19.911Z,1034.26
2017-12-23T00:10:19.988Z,1034.24
2017-12-23T00:11:21.163Z,1034.20
2017-12-23T00:12:19.666Z,1034.16
2017-12-23T00:13:20.135Z,1034.16
2017-12-23T00:14:20.496Z,1034.19
2017-12-23T00:15:19.610Z,1034.14
2017-12-23T00:16:19.878Z,1034.14
2017-12-23T00:17:20.742Z,1034.15
2017-12-23T00:18:19.875Z,1034.20
2017-12-23T00:19:20.320Z,1034.19
2017-12-23T00:20:41.599Z,1034.20
2017-12-23T00:21:41.901Z,1034.20
2017-12-23T00:22:42.638Z,1034.14
2017-12-23T00:23:42.043Z,1034.14
2017-12-23T00:24:42.877Z,1034.11
2017-12-23T00:25:41.954Z,1034.04
2017-12-23T00:26:41.714Z,1034.05
2017-12-23T00:27:42.381Z,1034.03
2017-12-23T00:28:41.650Z,1034.03
2017-12-23T00:29:41.994Z,1033.93
2017-12-23T00:30:42.455Z,1033.92
2017-12-23T00:31:41.806Z,1033.87
2017-12-23T00:32:41.599Z,1033.87
2017-12-23T00:33:42.449Z,1033.85
2017-12-23T00:34:41.952Z,1033.82
2017-12-23T00:35:42.256Z,1033.78
2017-12-23T00:36:40.971Z,1033.77
2017-12-23T00:37:42.466Z,1033.85
2017-12-23T00:38:42.378Z,1033.82
2017-12-23T00:39:41.087Z,1033.80
2017-12-23T00:40:41.786Z,1033.76
2017-12-23T00:41:42.177Z,1033.76
2017-12-23T00:43:04.780Z,1033.67
2017-12-23T00:44:05.464Z,1033.73
2017-12-23T00:45:04.790Z,1033.67
2017-12-23T00:46:04.785Z,1033.65
2017-12-23T00:47:05.212Z,1033.61
2017-12-23T00:48:05.709Z,1033.56
2017-12-23T00:49:05.523Z,1033.49
2017-12-23T00:50:04.697Z,1033.47
2017-12-23T00:51:05.132Z,1033.46
2017-12-23T00:52:05.544Z,1033.51
2017-12-23T00:53:04.998Z,1033.43
2017-12-23T00:54:05.454Z,1033.47
2017-12-23T00:55:04.362Z,1033.49
2017-12-23T00:56:04.790Z,1033.47
2017-12-23T00:57:05.135Z,1033.48
2017-12-23T00:58:04.839Z,1033.49
2017-12-23T00:59:04.743Z,1033.44
2017-12-23T01:00:04.936Z,1033.38
2017-12-23T01:01:05.328Z,1033.38
2017-12-23T01:02:04.119Z,1033.35
2017-12-23T01:03:05.595Z,1033.33
2017-12-23T01:04:05.000Z,1033.32
2017-12-23T01:05:05.810Z,1033.28
2017-12-23T01:06:05.280Z,1033.27
2017-12-23T01:07:05.682Z,1033.25
2017-12-23T01:08:05.049Z,1033.23
2017-12-23T01:09:04.813Z,1033.19
2017-12-23T01:10:04.935Z,1033.22
2017-12-23T01:11:27.884Z,1033.22
2017-12-23T01:12:27.598Z,1033.28
2017-12-23T01:13:27.477Z,1033.28
2017-12-23T01:14:27.546Z,1033.30
2017-12-23T01:15:27.438Z,1033.24
2017-12-23T01:16:28.111Z,1033.19
2017-12-23T01:17:28.192Z,1033.18
2017-12-23T01:18:28.423Z,1033.23
2017-12-23T01:19:27.456Z,1033.17
2017-12-23T01:20:27.781Z,1033.18
2017-12-23T01:21:28.587Z,1033.16
2017-12-23T01:22:28.129Z,1033.19
2017-12-23T01:23:28.327Z,1033.20
2017-12-23T01:24:27.877Z,1033.22
2017-12-23T01:25:27.469Z,1033.17
2017-12-23T01:26:27.150Z,1033.14
2017-12-23T01:27:28.979Z,1033.14
2017-12-23T01:28:28.439Z,1033.13
2017-12-23T01:29:27.492Z,1033.10
2017-12-23T01:30:27.654Z,1033.12
2017-12-23T01:31:27.807Z,1033.11
2017-12-23T01:32:27.884Z,1033.07
2017-12-23T01:33:28.437Z,1033.09
2017-12-23T01:34:27.150Z,1033.09
2017-12-23T01:35:27.749Z,1033.11
2017-12-23T01:36:27.491Z,1033.10
2017-12-23T01:37:28.724Z,1033.08
2017-12-23T01:38:28.072Z,1033.07
2017-12-23T01:39:28.104Z,1033.06
2017-12-23T01:40:28.426Z,1033.11
2017-12-23T01:41:27.903Z,1033.12
2017-12-23T01:42:28.515Z,1033.13
2017-12-23T01:43:27.310Z,1033.12
2017-12-23T01:44:50.837Z,1033.11
2017-12-23T01:45:52.167Z,1033.11
2017-12-23T01:46:50.824Z,1033.15
2017-12-23T01:47:51.202Z,1033.16
2017-12-23T01:48:51.642Z,1033.22
2017-12-23T01:49:52.982Z,1033.24
2017-12-23T01:50:51.340Z,1033.27
2017-12-23T01:51:51.670Z,1033.18
2017-12-23T01:53:13.064Z,1033.13
2017-12-23T01:54:12.770Z,1033.14
2017-12-23T01:55:14.663Z,1033.19
2017-12-23T01:56:13.568Z,1033.13
2017-12-23T01:57:14.057Z,1033.10
2017-12-23T01:58:13.440Z,1033.05
2017-12-23T01:59:13.773Z,1033.09
2017-12-23T02:00:13.863Z,1033.07
2017-12-23T02:01:14.492Z,1033.01
2017-12-23T02:02:58.090Z,1032.99
2017-12-23T02:03:58.747Z,1032.96
2017-12-23T02:04:59.144Z,1032.93
2017-12-23T02:05:59.078Z,1032.92
2017-12-23T02:06:59.277Z,1032.84
2017-12-23T02:07:59.272Z,1032.77
2017-12-23T02:08:59.100Z,1032.71
2017-12-23T02:09:59.466Z,1032.66
2017-12-23T02:10:59.732Z,1032.56
2017-12-23T02:11:58.984Z,1032.56
2017-12-23T02:12:59.644Z,1032.47
2017-12-23T02:13:59.088Z,1032.51
2017-12-23T02:14:59.048Z,1032.49
2017-12-23T02:15:58.828Z,1032.48
2017-12-23T02:16:59.158Z,1032.49
2017-12-23T02:17:59.763Z,1032.45
2017-12-23T02:18:58.535Z,1032.47
2017-12-23T02:19:58.428Z,1032.49
2017-12-23T02:20:58.249Z,1032.49
2017-12-23T02:21:59.633Z,1032.45
2017-12-23T02:22:59.227Z,1032.44
2017-12-23T02:24:00.111Z,1032.42
2017-12-23T02:24:59.587Z,1032.42
2017-12-23T02:25:58.868Z,1032.38
2017-12-23T02:26:59.086Z,1032.38
2017-12-23T02:27:58.933Z,1032.35
2017-12-23T02:29:20.675Z,1032.34
2017-12-23T02:30:21.156Z,1032.35
2017-12-23T02:31:21.326Z,1032.33
2017-12-23T02:32:20.982Z,1032.26
2017-12-23T02:33:21.400Z,1032.24
2017-12-23T02:34:44.316Z,1032.19
2017-12-23T02:35:44.178Z,1032.20
2017-12-23T02:36:44.752Z,1032.22
2017-12-23T02:37:45.684Z,1032.23
2017-12-23T02:38:44.952Z,1032.27
2017-12-23T02:39:44.258Z,1032.27
2017-12-23T02:40:44.014Z,1032.33
2017-12-23T02:41:44.043Z,1032.29
2017-12-23T02:42:44.513Z,1032.25
2017-12-23T02:43:44.466Z,1032.28
2017-12-23T02:44:45.379Z,1032.25
2017-12-23T02:45:44.371Z,1032.19
2017-12-23T02:46:44.753Z,1032.19
2017-12-23T02:47:45.272Z,1032.16
2017-12-23T02:48:44.303Z,1032.18
2017-12-23T02:49:44.471Z,1032.25
2017-12-23T02:50:45.019Z,1032.20
2017-12-23T02:51:43.963Z,1032.20
2017-12-23T02:52:43.857Z,1032.18
2017-12-23T02:53:44.788Z,1032.15
2017-12-23T02:54:45.294Z,1032.08
2017-12-23T02:55:43.983Z,1032.08
2017-12-23T02:56:45.300Z,1032.05
2017-12-23T02:57:44.214Z,1032.11
2017-12-23T02:58:44.088Z,1032.06
2017-12-23T02:59:44.597Z,1032.06
2017-12-23T03:00:44.844Z,1032.05
2017-12-23T03:01:45.322Z,1032.05
2017-12-23T03:02:44.012Z,1032.06
2017-12-23T03:03:44.508Z,1032.09
2017-12-23T03:04:44.832Z,1032.03
2017-12-23T03:05:45.792Z,1032.01
2017-12-23T03:06:45.286Z,1031.97
2017-12-23T03:07:44.262Z,1031.97
2017-12-23T03:08:44.256Z,1031.95
2017-12-23T03:09:43.946Z,1031.91
2017-12-23T03:10:44.411Z,1031.91
2017-12-23T03:11:45.224Z,1031.87
2017-12-23T03:12:44.671Z,1031.86
2017-12-23T03:13:44.566Z,1031.93
2017-12-23T03:15:08.475Z,1031.91
2017-12-23T03:16:09.167Z,1031.86
2017-12-23T03:17:09.224Z,1031.91
2017-12-23T03:18:09.638Z,1031.90
2017-12-23T03:19:10.012Z,1031.83
2017-12-23T03:20:08.638Z,1031.89
2017-12-23T03:21:08.555Z,1031.86
2017-12-23T03:22:10.431Z,1031.83
2017-12-23T03:23:09.435Z,1031.77
2017-12-23T03:24:09.071Z,1031.80
2017-12-23T03:25:08.924Z,1031.79
2017-12-23T03:26:09.620Z,1031.80
2017-12-23T03:27:10.367Z,1031.85
2017-12-23T03:28:09.449Z,1031.77
2017-12-23T03:29:09.299Z,1031.72
2017-12-23T03:30:09.681Z,1031.76
2017-12-23T03:31:09.195Z,1031.76
2017-12-23T03:32:09.400Z,1031.74
2017-12-23T03:33:09.455Z,1031.75
2017-12-23T03:34:09.315Z,1031.71
2017-12-23T03:35:09.127Z,1031.75
2017-12-23T03:36:09.536Z,1031.74
2017-12-23T03:37:32.886Z,1031.78
2017-12-23T03:38:33.912Z,1031.69
2017-12-23T03:39:34.074Z,1031.72
2017-12-23T03:40:33.371Z,1031.72
2017-12-23T03:41:55.732Z,1031.78
2017-12-23T03:42:56.559Z,1031.80
2017-12-23T03:43:55.458Z,1031.80
2017-12-23T03:44:55.379Z,1031.74
2017-12-23T03:45:55.917Z,1031.78
2017-12-23T03:46:56.369Z,1031.76
2017-12-23T03:47:55.758Z,1031.75
2017-12-23T03:48:56.252Z,1031.75
2017-12-23T03:49:56.774Z,1031.68
2017-12-23T03:50:56.146Z,1031.69
2017-12-23T03:51:56.154Z,1031.68
2017-12-23T03:52:56.168Z,1031.68
2017-12-23T03:53:56.014Z,1031.64
2017-12-23T03:54:56.079Z,1031.63
2017-12-23T03:55:56.642Z,1031.62
2017-12-23T03:56:56.218Z,1031.55
2017-12-23T03:57:56.777Z,1031.58
2017-12-23T03:58:56.116Z,1031.57
2017-12-23T03:59:56.433Z,1031.55
2017-12-23T04:00:55.323Z,1031.53
2017-12-23T04:01:56.636Z,1031.55
2017-12-23T04:02:56.099Z,1031.52
2017-12-23T04:03:56.367Z,1031.47
2017-12-23T04:04:55.933Z,1031.55
2017-12-23T04:05:56.446Z,1031.50
2017-12-23T04:06:56.754Z,1031.51
2017-12-23T04:07:56.168Z,1031.55
2017-12-23T04:08:57.180Z,1031.54
2017-12-23T04:09:56.115Z,1031.57
2017-12-23T04:10:56.472Z,1031.46
2017-12-23T04:11:55.946Z,1031.53
2017-12-23T04:12:55.852Z,1031.53
2017-12-23T04:13:56.229Z,1031.54
2017-12-23T04:14:56.908Z,1031.54
2017-12-23T04:15:56.281Z,1031.50
2017-12-23T04:16:56.653Z,1031.50
2017-12-23T04:17:55.931Z,1031.52
2017-12-23T04:18:55.922Z,1031.48
2017-12-23T04:19:55.887Z,1031.49
2017-12-23T04:20:55.922Z,1031.42
2017-12-23T04:21:55.635Z,1031.43
2017-12-23T04:22:55.959Z,1031.44
2017-12-23T04:23:56.452Z,1031.41
2017-12-23T04:24:55.902Z,1031.44
2017-12-23T04:25:56.587Z,1031.38
2017-12-23T04:26:55.823Z,1031.40
2017-12-23T04:27:55.753Z,1031.41
2017-12-23T04:28:55.919Z,1031.32
2017-12-23T04:29:56.452Z,1031.37
2017-12-23T04:30:56.039Z,1031.31
2017-12-23T04:31:56.781Z,1031.26
2017-12-23T04:32:55.560Z,1031.30
2017-12-23T04:33:56.050Z,1031.23
2017-12-23T04:34:55.954Z,1031.14
2017-12-23T04:35:56.332Z,1031.20
2017-12-23T04:36:55.872Z,1031.21
2017-12-23T04:37:56.749Z,1031.20
2017-12-23T04:38:55.576Z,1031.23
2017-12-23T04:39:55.176Z,1031.16
2017-12-23T04:40:55.871Z,1031.15
2017-12-23T04:41:56.364Z,1031.12
2017-12-23T04:42:55.894Z,1031.09
2017-12-23T04:43:56.816Z,1031.07
2017-12-23T04:44:55.825Z,1031.10
2017-12-23T04:45:56.194Z,1031.14
2017-12-23T04:46:56.716Z,1031.10
2017-12-23T04:47:55.679Z,1031.10
2017-12-23T04:48:55.478Z,1031.07
2017-12-23T04:49:56.379Z,1031.06
2017-12-23T04:50:55.438Z,1031.06
2017-12-23T04:51:55.090Z,1031.03
2017-12-23T04:52:56.492Z,1031.04
2017-12-23T04:53:55.364Z,1030.96
2017-12-23T04:54:55.676Z,1030.92
2017-12-23T04:55:55.700Z,1030.89
2017-12-23T04:56:55.691Z,1030.84
2017-12-23T04:57:55.544Z,1030.89
2017-12-23T04:58:55.922Z,1030.84
2017-12-23T04:59:56.122Z,1030.94
2017-12-23T05:00:56.390Z,1030.86
2017-12-23T05:01:56.238Z,1030.95
2017-12-23T05:02:56.318Z,1030.87
2017-12-23T05:03:56.715Z,1030.89
2017-12-23T05:04:55.449Z,1030.81
2017-12-23T05:05:56.521Z,1030.88
2017-12-23T05:06:55.132Z,1030.91
2017-12-23T05:07:55.979Z,1030.90
2017-12-23T05:08:56.286Z,1030.75
2017-12-23T05:09:55.835Z,1030.80
2017-12-23T05:10:55.653Z,1030.86
2017-12-23T05:11:56.464Z,1030.79
2017-12-23T05:12:55.828Z,1030.77
2017-12-23T05:13:55.731Z,1030.84
2017-12-23T05:14:55.445Z,1030.77
2017-12-23T05:15:55.851Z,1030.75
2017-12-23T05:16:56.383Z,1030.72
2017-12-23T05:17:55.187Z,1030.69
2017-12-23T05:18:56.206Z,1030.69
2017-12-23T05:19:56.139Z,1030.64
2017-12-23T05:20:56.245Z,1030.59
2017-12-23T05:22:18.581Z,1030.53
2017-12-23T05:23:18.931Z,1030.54
2017-12-23T05:24:19.379Z,1030.59
2017-12-23T05:25:19.431Z,1030.65
2017-12-23T05:26:19.422Z,1030.49
2017-12-23T05:27:20.073Z,1030.56
2017-12-23T05:28:19.449Z,1030.58
2017-12-23T05:29:19.280Z,1030.59
2017-12-23T05:30:19.102Z,1030.64
2017-12-23T05:31:18.948Z,1030.61
2017-12-23T05:32:42.140Z,1030.60
2017-12-23T05:33:41.778Z,1030.55
2017-12-23T05:34:42.243Z,1030.52
2017-12-23T05:35:42.586Z,1030.51
2017-12-23T05:36:41.557Z,1030.54
2017-12-23T05:37:41.762Z,1030.54
2017-12-23T05:38:41.836Z,1030.59
2017-12-23T05:39:41.773Z,1030.62
2017-12-23T05:40:41.514Z,1030.70
2017-12-23T05:42:04.695Z,1030.73
2017-12-23T05:43:05.896Z,1030.68
2017-12-23T05:44:04.713Z,1030.62
2017-12-23T05:45:05.478Z,1030.55
2017-12-23T05:46:05.328Z,1030.57
2017-12-23T05:47:05.864Z,1030.55
2017-12-23T05:48:05.001Z,1030.59
2017-12-23T05:49:27.683Z,1030.64
2017-12-23T05:50:27.870Z,1030.66
2017-12-23T05:51:27.925Z,1030.62
2017-12-23T05:52:28.219Z,1030.67
2017-12-23T05:53:49.718Z,1030.60
2017-12-23T05:54:51.481Z,1030.63
2017-12-23T05:55:50.874Z,1030.63
2017-12-23T05:56:51.324Z,1030.64
2017-12-23T05:57:50.852Z,1030.65
2017-12-23T05:58:51.129Z,1030.63
2017-12-23T06:00:11.748Z,1030.59
2017-12-23T06:01:11.457Z,1030.54
2017-12-23T06:02:12.223Z,1030.57
2017-12-23T06:03:12.154Z,1030.51
2017-12-23T06:04:12.275Z,1030.60
2017-12-23T06:05:13.147Z,1030.53
2017-12-23T06:06:12.549Z,1030.57
2017-12-23T06:07:11.730Z,1030.56
2017-12-23T06:08:11.641Z,1030.53
2017-12-23T06:09:11.519Z,1030.56
2017-12-23T06:10:12.165Z,1030.54
2017-12-23T06:11:12.210Z,1030.64
2017-12-23T06:12:12.713Z,1030.58
2017-12-23T06:13:12.192Z,1030.57
2017-12-23T06:14:11.859Z,1030.61
2017-12-23T06:15:12.196Z,1030.61
2017-12-23T06:16:34.745Z,1030.57
2017-12-23T06:17:35.196Z,1030.68
2017-12-23T06:18:35.616Z,1030.61
2017-12-23T06:19:35.498Z,1030.60
2017-12-23T06:20:35.260Z,1030.56
2017-12-23T06:21:35.650Z,1030.56
2017-12-23T06:22:35.712Z,1030.53
2017-12-23T06:23:35.511Z,1030.49
2017-12-23T06:24:35.463Z,1030.46
2017-12-23T06:25:35.753Z,1030.50
2017-12-23T06:26:36.467Z,1030.53
2017-12-23T06:27:35.878Z,1030.43
2017-12-23T06:28:35.392Z,1030.44
2017-12-23T06:29:35.192Z,1030.39
2017-12-23T06:30:35.171Z,1030.42
2017-12-23T06:31:35.354Z,1030.42
2017-12-23T06:32:35.342Z,1030.38
2017-12-23T06:33:35.007Z,1030.38
2017-12-23T06:34:34.864Z,1030.38
2017-12-23T06:35:36.138Z,1030.36
2017-12-23T06:36:35.454Z,1030.44
2017-12-23T06:37:36.008Z,1030.38
2017-12-23T06:38:35.932Z,1030.39
2017-12-23T06:39:35.274Z,1030.38
2017-12-23T06:40:35.758Z,1030.38
2017-12-23T06:41:35.378Z,1030.27
2017-12-23T06:42:36.230Z,1030.32
2017-12-23T06:43:35.719Z,1030.35
2017-12-23T06:44:35.197Z,1030.33
2017-12-23T06:45:35.759Z,1030.28
2017-12-23T06:46:34.947Z,1030.33
2017-12-23T06:47:34.717Z,1030.30
2017-12-23T06:48:36.565Z,1030.26
2017-12-23T06:49:35.498Z,1030.26
2017-12-23T06:50:57.050Z,1030.24
2017-12-23T06:51:58.014Z,1030.16
2017-12-23T06:52:58.920Z,1030.19
2017-12-23T06:53:58.614Z,1030.17
2017-12-23T06:54:57.795Z,1030.14
2017-12-23T06:55:57.674Z,1030.13
2017-12-23T06:57:19.899Z,1030.19
2017-12-23T06:58:21.125Z,1030.12
2017-12-23T06:59:21.011Z,1030.07
2017-12-23T07:00:43.607Z,1030.19
2017-12-23T07:01:43.922Z,1030.08
2017-12-23T07:02:43.757Z,1030.13
2017-12-23T07:03:43.616Z,1030.19
2017-12-23T07:04:44.129Z,1030.08
2017-12-23T07:05:43.007Z,1030.15
2017-12-23T07:06:43.910Z,1030.14
2017-12-23T07:07:43.933Z,1030.19
2017-12-23T07:08:44.014Z,1030.21
2017-12-23T07:09:44.296Z,1030.18
2017-12-23T07:10:43.676Z,1030.19
2017-12-23T07:11:43.725Z,1030.21
2017-12-23T07:13:06.477Z,1030.16
2017-12-23T07:14:06.383Z,1030.23
2017-12-23T07:15:06.747Z,1030.23
2017-12-23T07:16:06.640Z,1030.24
2017-12-23T07:17:06.533Z,1030.25
2017-12-23T07:18:06.293Z,1030.29
2017-12-23T07:19:06.806Z,1030.29
2017-12-23T07:20:07.171Z,1030.28
2017-12-23T07:21:06.657Z,1030.27
2017-12-23T07:22:06.693Z,1030.22
2017-12-23T07:23:06.802Z,1030.24
2017-12-23T07:24:06.980Z,1030.25
2017-12-23T07:25:07.195Z,1030.33
2017-12-23T07:26:06.671Z,1030.32
2017-12-23T07:27:07.036Z,1030.30
2017-12-23T07:28:06.640Z,1030.36
2017-12-23T07:29:07.105Z,1030.41
2017-12-23T07:30:05.940Z,1030.36
2017-12-23T07:31:07.152Z,1030.41
2017-12-23T07:32:05.965Z,1030.42
2017-12-23T07:33:06.657Z,1030.38
2017-12-23T07:34:06.869Z,1030.39
2017-12-23T07:35:07.571Z,1030.38
2017-12-23T07:36:07.316Z,1030.42
2017-12-23T07:37:29.377Z,1030.43
2017-12-23T07:38:29.129Z,1030.46
2017-12-23T07:39:29.658Z,1030.44
2017-12-23T07:40:29.764Z,1030.43
2017-12-23T07:41:30.213Z,1030.43
2017-12-23T07:42:29.903Z,1030.43
2017-12-23T07:43:28.893Z,1030.40
2017-12-23T07:44:29.715Z,1030.38
2017-12-23T07:45:29.915Z,1030.35
2017-12-23T07:46:29.348Z,1030.39
2017-12-23T07:47:30.388Z,1030.36
2017-12-23T07:48:29.863Z,1030.39
2017-12-23T07:49:30.318Z,1030.36
2017-12-23T07:50:29.049Z,1030.43
2017-12-23T07:51:53.446Z,1030.32
2017-12-23T07:52:54.059Z,1030.27
2017-12-23T07:53:54.494Z,1030.29
2017-12-23T07:54:53.760Z,1030.24
2017-12-23T07:55:53.568Z,1030.33
2017-12-23T07:56:53.348Z,1030.31
2017-12-23T07:57:54.035Z,1030.30
2017-12-23T07:58:53.869Z,1030.35
2017-12-23T07:59:54.340Z,1030.35
2017-12-23T08:00:54.668Z,1030.26
2017-12-23T08:01:54.146Z,1030.25
2017-12-23T08:02:55.030Z,1030.26
2017-12-23T08:03:54.754Z,1030.18
2017-12-23T08:04:54.008Z,1030.23
2017-12-23T08:05:54.601Z,1030.24
2017-12-23T08:06:54.186Z,1030.23
2017-12-23T08:07:54.928Z,1030.23
2017-12-23T08:08:53.748Z,1030.19
2017-12-23T08:09:54.060Z,1030.09
2017-12-23T08:10:54.474Z,1030.07
2017-12-23T08:11:53.214Z,1030.12
2017-12-23T08:12:53.864Z,1030.04
2017-12-23T08:13:54.677Z,1029.86
2017-12-23T08:14:53.549Z,1029.99
2017-12-23T08:15:54.099Z,1029.91
2017-12-23T08:16:54.639Z,1029.80
2017-12-23T08:17:54.110Z,1029.86
2017-12-23T08:18:54.019Z,1029.80
2017-12-23T08:19:54.763Z,1029.91
2017-12-23T08:20:54.197Z,1029.85
2017-12-23T08:21:53.410Z,1029.84
2017-12-23T08:22:53.843Z,1029.66
2017-12-23T08:24:16.267Z,1029.82
2017-12-23T08:25:16.740Z,1029.88
2017-12-23T08:26:16.966Z,1029.93
2017-12-23T08:27:16.516Z,1029.97
2017-12-23T08:28:16.481Z,1030.03
2017-12-23T08:29:16.950Z,1030.05
2017-12-23T08:30:17.472Z,1030.10
2017-12-23T08:31:18.256Z,1030.12
2017-12-23T08:32:16.811Z,1030.21
2017-12-23T08:33:17.131Z,1030.15
2017-12-23T08:34:16.591Z,1030.19
2017-12-23T08:35:38.631Z,1030.21
2017-12-23T08:36:39.189Z,1030.19
2017-12-23T08:37:39.398Z,1030.27
2017-12-23T08:38:39.883Z,1030.21
2017-12-23T08:39:38.964Z,1030.22
2017-12-23T08:40:39.777Z,1030.23
2017-12-23T08:42:01.724Z,1030.27
2017-12-23T08:43:01.508Z,1030.21
2017-12-23T08:44:01.378Z,1030.25
2017-12-23T08:45:01.573Z,1030.35
2017-12-23T08:46:02.473Z,1030.19
2017-12-23T08:47:01.969Z,1030.17
2017-12-23T08:48:01.803Z,1030.25
2017-12-23T08:49:02.353Z,1030.31
2017-12-23T08:50:01.462Z,1030.39
2017-12-23T08:51:01.767Z,1030.40
2017-12-23T08:52:02.146Z,1030.46
2017-12-23T08:53:02.034Z,1030.43
2017-12-23T08:54:02.912Z,1030.42
2017-12-23T08:55:02.146Z,1030.45
2017-12-23T08:56:03.060Z,1030.48
2017-12-23T08:57:01.894Z,1030.38
2017-12-23T08:58:01.798Z,1030.49
2017-12-23T08:59:02.464Z,1030.41
2017-12-23T09:00:01.189Z,1030.39
2017-12-23T09:01:02.764Z,1030.37
2017-12-23T09:02:02.176Z,1030.43
2017-12-23T09:03:02.381Z,1030.40
2017-12-23T09:04:01.112Z,1030.41
2017-12-23T09:05:02.562Z,1030.34
2017-12-23T09:06:01.948Z,1030.34
2017-12-23T09:07:02.113Z,1030.31
2017-12-23T09:08:01.992Z,1030.35
2017-12-23T09:09:01.856Z,1030.31
2017-12-23T09:10:02.276Z,1030.38
2017-12-23T09:11:01.153Z,1030.30
2017-12-23T09:12:04.230Z,1030.31
2017-12-23T09:13:01.516Z,1030.27
2017-12-23T09:14:01.251Z,1030.26
2017-12-23T09:15:24.231Z,1030.26
2017-12-23T09:16:25.452Z,1030.30
2017-12-23T09:17:25.903Z,1030.23
2017-12-23T09:18:25.124Z,1030.30
2017-12-23T09:19:24.977Z,1030.33
2017-12-23T09:20:25.208Z,1030.29
2017-12-23T09:21:25.423Z,1030.30
2017-12-23T09:22:24.316Z,1030.32
2017-12-23T09:23:25.968Z,1030.34
2017-12-23T09:24:25.608Z,1030.29
2017-12-23T09:25:25.775Z,1030.33
2017-12-23T09:26:25.387Z,1030.22
2017-12-23T09:27:24.254Z,1030.40
2017-12-23T09:28:26.415Z,1030.31
2017-12-23T09:29:25.257Z,1030.29
2017-12-23T09:30:25.210Z,1030.29
2017-12-23T09:31:25.751Z,1030.23
2017-12-23T09:32:25.345Z,1030.21
2017-12-23T09:33:25.562Z,1030.11
2017-12-23T09:34:25.152Z,1030.18
2017-12-23T09:35:26.190Z,1030.20
2017-12-23T09:36:26.267Z,1030.19
2017-12-23T09:37:24.367Z,1030.16
2017-12-23T09:38:25.852Z,1030.17
2017-12-23T09:39:25.338Z,1030.13
2017-12-23T09:40:25.851Z,1030.16
2017-12-23T09:41:24.853Z,1030.15
2017-12-23T09:42:25.024Z,1030.15
2017-12-23T09:43:25.818Z,1030.14
2017-12-23T09:44:25.460Z,1030.16
2017-12-23T09:45:24.469Z,1030.17
2017-12-23T09:46:24.643Z,1030.19
2017-12-23T09:47:27.370Z,1030.24
2017-12-23T09:48:25.448Z,1030.21
2017-12-23T09:49:27.088Z,1030.28
2017-12-23T09:50:34.552Z,1030.30
2017-12-23T09:51:42.185Z,1030.30
2017-12-23T09:52:48.994Z,1030.36
2017-12-23T09:54:13.663Z,1030.36
2017-12-23T09:55:01.114Z,1030.36
2017-12-23T09:56:00.667Z,1030.31
2017-12-23T09:56:59.430Z,1030.29
2017-12-23T09:57:54.335Z,1030.27
2017-12-23T09:58:55.942Z,1030.30
2017-12-23T09:59:53.761Z,1030.31
2017-12-23T10:00:54.801Z,1030.32
2017-12-23T10:01:53.822Z,1030.26
2017-12-23T10:02:53.563Z,1030.25
2017-12-23T10:03:54.259Z,1030.24
2017-12-23T10:04:55.109Z,1030.22
2017-12-23T10:05:54.679Z,1030.18
2017-12-23T10:06:56.767Z,1030.23
2017-12-23T10:08:02.106Z,1030.18
2017-12-23T10:09:02.853Z,1030.15
2017-12-23T10:10:12.569Z,1030.20
2017-12-23T10:11:18.549Z,1030.17
2017-12-23T10:12:16.369Z,1030.17
2017-12-23T10:12:54.356Z,1030.19
2017-12-23T10:13:53.913Z,1030.14
2017-12-23T10:14:56.156Z,1030.16
2017-12-23T10:15:55.581Z,1030.08
2017-12-23T10:16:54.641Z,1030.07
2017-12-23T10:17:54.418Z,1030.14
2017-12-23T10:18:55.149Z,1030.08
2017-12-23T10:19:54.985Z,1030.04
2017-12-23T10:20:54.913Z,1029.99
2017-12-23T10:21:55.279Z,1030.02
2017-12-23T10:22:54.767Z,1029.97
2017-12-23T10:23:55.747Z,1029.89
2017-12-23T10:24:55.077Z,1030.02
2017-12-23T10:25:55.188Z,1030.00
2017-12-23T10:26:54.121Z,1029.95
2017-12-23T10:27:54.651Z,1029.97
2017-12-23T10:28:54.532Z,1029.93
2017-12-23T10:29:54.599Z,1030.05
2017-12-23T10:30:54.699Z,1029.86
2017-12-23T10:31:56.726Z,1029.89
2017-12-23T10:32:56.128Z,1029.87
2017-12-23T10:33:54.766Z,1029.90
2017-12-23T10:34:55.166Z,1029.82
2017-12-23T10:35:54.680Z,1029.87
2017-12-23T10:36:54.258Z,1029.87
2017-12-23T10:37:54.938Z,1029.72
2017-12-23T10:38:54.993Z,1029.88
2017-12-23T10:39:54.643Z,1029.89
2017-12-23T10:40:54.412Z,1029.80
2017-12-23T10:41:54.653Z,1029.88
2017-12-23T10:42:54.372Z,1029.76
2017-12-23T10:43:54.065Z,1029.79
2017-12-23T10:44:55.357Z,1029.74
2017-12-23T10:45:54.018Z,1029.71
2017-12-23T10:46:55.786Z,1029.87
2017-12-23T10:47:54.405Z,1029.74
2017-12-23T10:49:19.517Z,1029.75
2017-12-23T10:50:19.821Z,1029.71
2017-12-23T10:51:19.923Z,1029.76
2017-12-23T10:52:42.844Z,1029.79
2017-12-23T10:53:44.822Z,1029.79
2017-12-23T10:54:44.071Z,1029.78
2017-12-23T10:55:58.999Z,1029.76
2017-12-23T10:56:53.213Z,1029.75
2017-12-23T10:57:43.807Z,1029.74
2017-12-23T10:58:56.385Z,1029.77
2017-12-23T11:00:09.118Z,1029.75
2017-12-23T11:00:56.187Z,1029.77
2017-12-23T11:01:44.007Z,1029.72
2017-12-23T11:02:42.510Z,1029.73
2017-12-23T11:03:42.452Z,1029.70
2017-12-23T11:04:44.243Z,1029.77
2017-12-23T11:05:43.202Z,1029.67
2017-12-23T11:06:43.775Z,1029.70
2017-12-23T11:07:43.165Z,1029.76
2017-12-23T11:08:45.058Z,1029.66
2017-12-23T11:09:43.320Z,1029.65
2017-12-23T11:10:43.488Z,1029.67
2017-12-23T11:11:45.117Z,1029.70
2017-12-23T11:12:42.843Z,1029.71
2017-12-23T11:13:42.629Z,1029.71
2017-12-23T11:14:45.148Z,1029.68
2017-12-23T11:15:43.399Z,1029.69
2017-12-23T11:16:44.456Z,1029.68
2017-12-23T11:17:43.820Z,1029.72
2017-12-23T11:18:43.300Z,1029.66
2017-12-23T11:19:45.572Z,1029.63
2017-12-23T11:20:43.142Z,1029.62
2017-12-23T11:21:44.760Z,1029.65
2017-12-23T11:22:43.519Z,1029.71
2017-12-23T11:23:44.369Z,1029.67
2017-12-23T11:24:44.463Z,1029.63
2017-12-23T11:25:44.030Z,1029.62
2017-12-23T11:26:43.304Z,1029.53
2017-12-23T11:27:43.865Z,1029.50
2017-12-23T11:28:42.718Z,1029.54
2017-12-23T11:29:42.747Z,1029.50
2017-12-23T11:30:43.232Z,1029.57
2017-12-23T11:31:43.011Z,1029.53
2017-12-23T11:32:43.301Z,1029.54
2017-12-23T11:33:43.793Z,1029.53
2017-12-23T11:34:42.693Z,1029.56
2017-12-23T11:36:05.939Z,1029.50
2017-12-23T11:37:07.535Z,1029.50
2017-12-23T11:38:06.994Z,1029.50
2017-12-23T11:39:16.230Z,1029.50
2017-12-23T11:40:34.242Z,1029.46
2017-12-23T11:41:30.275Z,1029.48
2017-12-23T11:42:07.059Z,1029.40
2017-12-23T11:43:06.873Z,1029.41
2017-12-23T11:44:06.746Z,1029.37
2017-12-23T11:45:08.366Z,1029.41
2017-12-23T11:46:06.593Z,1029.32
2017-12-23T11:47:06.625Z,1029.35
2017-12-23T11:48:06.547Z,1029.33
2017-12-23T11:49:06.785Z,1029.35
2017-12-23T11:50:36.025Z,1029.37
2017-12-23T11:51:36.907Z,1029.28
2017-12-23T11:52:35.768Z,1029.26
2017-12-23T11:53:35.652Z,1029.29
2017-12-23T11:54:35.743Z,1029.23
2017-12-23T11:55:36.791Z,1029.23
2017-12-23T11:56:37.307Z,1029.24
2017-12-23T11:57:36.781Z,1029.09
2017-12-23T11:58:38.648Z,1029.19
2017-12-23T12:00:20.418Z,1029.12
2017-12-23T12:01:21.122Z,1029.07
2017-12-23T12:02:20.688Z,1029.11
2017-12-23T12:03:21.338Z,1029.07
2017-12-23T12:04:20.715Z,1028.96
2017-12-23T12:05:21.292Z,1029.07
2017-12-23T12:06:21.402Z,1029.01
2017-12-23T12:07:20.804Z,1029.03
2017-12-23T12:08:21.326Z,1029.07
2017-12-23T12:09:20.754Z,1028.99
2017-12-23T12:10:20.787Z,1028.99
2017-12-23T12:11:21.943Z,1028.91
2017-12-23T12:12:20.593Z,1028.93
2017-12-23T12:13:42.844Z,1028.89
2017-12-23T12:14:43.293Z,1028.89
2017-12-23T12:15:43.604Z,1028.89
2017-12-23T12:16:43.640Z,1028.91
2017-12-23T12:17:43.056Z,1028.91
2017-12-23T12:18:43.254Z,1028.86
2017-12-23T12:19:44.985Z,1028.86